createdAt,value
2023-04-10T00:00:35.559Z,6.64
2023-04-10T00:03:04.347Z,6.64
2023-04-10T00:05:32.807Z,6.63
2023-04-10T00:08:00.910Z,6.64
2023-04-10T00:10:31.783Z,6.62
2023-04-10T00:13:00.968Z,6.60
2023-04-10T00:15:29.790Z,6.59
2023-04-10T00:17:57.911Z,6.61
2023-04-10T00:20:27.033Z,6.61
2023-04-10T00:22:55.540Z,6.61
2023-04-10T00:25:24.131Z,6.62
2023-04-10T00:27:54.112Z,6.62
2023-04-10T00:30:22.387Z,6.62
2023-04-10T00:32:50.686Z,6.62
2023-04-10T00:35:18.822Z,6.62
2023-04-10T00:37:47.012Z,6.63
2023-04-10T00:40:15.123Z,6.64
2023-04-10T00:42:43.146Z,6.66
2023-04-10T00:45:12.918Z,6.68
2023-04-10T00:47:41.035Z,6.70
2023-04-10T00:50:09.600Z,6.69
2023-04-10T00:52:37.722Z,6.67
2023-04-10T00:55:07.134Z,6.64
2023-04-10T00:57:35.245Z,6.62
2023-04-10T01:00:04.759Z,6.59
2023-04-10T01:02:34.318Z,6.58
2023-04-10T01:05:02.607Z,6.60
2023-04-10T01:07:39.818Z,6.63
2023-04-10T01:10:14.999Z,6.62
2023-04-10T01:12:53.059Z,6.62
2023-04-10T01:15:23.348Z,6.62
2023-04-10T01:18:03.096Z,6.63
2023-04-10T01:20:34.084Z,6.62
2023-04-10T01:23:42.496Z,6.62
2023-04-10T01:26:12.354Z,6.59
2023-04-10T01:28:53.189Z,6.59
2023-04-10T01:31:28.263Z,6.59
2023-04-10T01:34:01.171Z,6.59
2023-04-10T01:36:33.138Z,6.59
2023-04-10T01:39:01.900Z,6.55
2023-04-10T01:41:30.632Z,6.54
2023-04-10T01:44:01.148Z,6.55
2023-04-10T01:46:30.164Z,6.58
2023-04-10T01:49:00.144Z,6.59
2023-04-10T01:51:29.004Z,6.58
2023-04-10T01:53:57.144Z,6.56
2023-04-10T01:56:25.299Z,6.54
2023-04-10T01:58:53.669Z,6.50
2023-04-10T02:01:29.617Z,6.49
2023-04-10T02:03:59.124Z,6.45
2023-04-10T02:06:33.422Z,6.46
2023-04-10T02:09:09.546Z,6.46
2023-04-10T02:11:42.905Z,6.45
2023-04-10T02:14:12.804Z,6.47
2023-04-10T02:16:42.314Z,6.44
2023-04-10T02:19:10.999Z,6.43
2023-04-10T02:21:40.022Z,6.39
2023-04-10T02:24:08.232Z,6.38
2023-04-10T02:26:46.055Z,6.34
2023-04-10T02:29:14.445Z,6.32
2023-04-10T02:31:44.671Z,6.30
2023-04-10T02:34:13.323Z,6.28
2023-04-10T02:36:41.859Z,6.26
2023-04-10T02:39:09.946Z,6.26
2023-04-10T02:41:38.025Z,6.27
2023-04-10T02:44:06.873Z,6.26
2023-04-10T02:46:35.134Z,6.26
2023-04-10T02:49:04.630Z,6.24
2023-04-10T02:51:36.284Z,6.24
2023-04-10T02:54:04.490Z,6.22
2023-04-10T02:56:34.865Z,6.19
2023-04-10T02:59:03.526Z,6.19
2023-04-10T03:01:32.104Z,6.19
2023-04-10T03:04:00.393Z,6.18
2023-04-10T03:06:29.894Z,6.18
2023-04-10T03:08:57.962Z,6.16
2023-04-10T03:11:26.107Z,6.16
2023-04-10T03:13:54.452Z,6.16
2023-04-10T03:16:22.918Z,6.17
2023-04-10T03:18:51.028Z,6.17
2023-04-10T03:21:19.126Z,6.16
2023-04-10T03:23:48.603Z,6.16
2023-04-10T03:26:16.753Z,6.17
2023-04-10T03:28:44.911Z,6.17
2023-04-10T03:31:13.343Z,6.15
2023-04-10T03:33:41.508Z,6.15
2023-04-10T03:36:10.488Z,6.16
2023-04-10T03:38:38.620Z,6.16
2023-04-10T03:41:08.373Z,6.15
2023-04-10T03:43:36.508Z,6.15
2023-04-10T03:46:04.635Z,6.16
2023-04-10T03:48:33.492Z,6.19
2023-04-10T03:51:01.620Z,6.22
2023-04-10T03:53:29.709Z,6.24
2023-04-10T03:55:57.791Z,6.24
2023-04-10T03:58:27.220Z,6.24
2023-04-10T04:00:55.504Z,6.24
2023-04-10T04:03:23.786Z,6.24
2023-04-10T04:05:52.426Z,6.24
2023-04-10T04:08:20.581Z,6.26
2023-04-10T04:10:48.661Z,6.26
2023-04-10T04:13:16.705Z,6.25
2023-04-10T04:15:47.862Z,6.24
2023-04-10T04:18:15.955Z,6.23
2023-04-10T04:20:44.039Z,6.23
2023-04-10T04:23:12.139Z,6.24
2023-04-10T04:25:40.330Z,6.26
2023-04-10T04:28:08.390Z,6.23
2023-04-10T04:30:36.535Z,6.22
2023-04-10T04:33:06.019Z,6.22
2023-04-10T04:35:34.131Z,6.23
2023-04-10T04:38:02.611Z,6.22
2023-04-10T04:40:30.703Z,6.22
2023-04-10T04:42:58.753Z,6.22
2023-04-10T04:45:26.897Z,6.23
2023-04-10T04:47:54.985Z,6.25
2023-04-10T04:50:24.449Z,6.25
2023-04-10T04:52:52.516Z,6.27
2023-04-10T04:55:20.655Z,6.32
2023-04-10T04:57:48.699Z,6.35
2023-04-10T05:00:17.090Z,6.38
2023-04-10T05:02:45.477Z,6.44
2023-04-10T05:05:13.646Z,6.51
2023-04-10T05:07:43.075Z,6.56
2023-04-10T05:10:11.391Z,6.65
2023-04-10T05:12:41.862Z,6.70
2023-04-10T05:15:10.796Z,6.77
2023-04-10T05:17:38.873Z,6.84
2023-04-10T05:20:08.143Z,6.92
2023-04-10T05:22:36.227Z,6.96
2023-04-10T05:25:06.684Z,7.01
2023-04-10T05:27:34.754Z,7.06
2023-04-10T05:30:03.484Z,7.15
2023-04-10T05:32:31.565Z,7.21
2023-04-10T05:34:59.641Z,7.26
2023-04-10T05:37:27.711Z,7.31
2023-04-10T05:39:55.765Z,7.36
2023-04-10T05:42:25.232Z,7.43
2023-04-10T05:44:53.355Z,7.51
2023-04-10T05:47:21.451Z,7.58
2023-04-10T05:49:49.544Z,7.64
2023-04-10T05:52:17.607Z,7.71
2023-04-10T05:54:45.706Z,7.80
2023-04-10T05:57:13.769Z,7.93
2023-04-10T05:59:43.178Z,8.06
2023-04-10T06:02:12.004Z,8.20
2023-04-10T06:04:40.567Z,8.32
2023-04-10T06:07:08.758Z,8.39
2023-04-10T06:09:36.853Z,8.47
2023-04-10T06:12:05.186Z,8.64
2023-04-10T06:14:33.302Z,8.80
2023-04-10T06:17:02.754Z,8.90
2023-04-10T06:19:30.834Z,8.98
2023-04-10T06:21:58.959Z,9.03
2023-04-10T06:24:27.105Z,9.08
2023-04-10T06:26:57.156Z,9.13
2023-04-10T06:29:25.316Z,9.24
2023-04-10T06:31:53.514Z,9.36
2023-04-10T06:34:23.073Z,9.46
2023-04-10T06:36:51.985Z,9.48
2023-04-10T06:39:20.858Z,9.50
2023-04-10T06:41:48.913Z,9.55
2023-04-10T06:44:16.979Z,9.61
2023-04-10T06:46:45.344Z,9.68
2023-04-10T06:49:13.437Z,9.72
2023-04-10T06:51:42.896Z,9.79
2023-04-10T06:54:10.953Z,9.82
2023-04-10T06:56:39.071Z,9.88
2023-04-10T06:59:07.170Z,9.96
2023-04-10T07:01:35.841Z,10.09
2023-04-10T07:04:03.950Z,10.23
2023-04-10T07:06:32.487Z,10.40
2023-04-10T07:09:01.908Z,10.54
2023-04-10T07:11:29.990Z,10.66
2023-04-10T07:13:58.841Z,10.75
2023-04-10T07:16:27.554Z,10.84
2023-04-10T07:18:56.131Z,10.88
2023-04-10T07:21:24.875Z,10.97
2023-04-10T07:23:53.222Z,11.07
2023-04-10T07:26:22.748Z,11.24
2023-04-10T07:28:50.939Z,11.39
2023-04-10T07:31:19.261Z,11.50
2023-04-10T07:33:47.671Z,11.64
2023-04-10T07:36:15.950Z,11.81
2023-04-10T07:38:44.053Z,12.02
2023-04-10T07:41:12.399Z,12.12
2023-04-10T07:43:41.921Z,12.17
2023-04-10T07:46:10.056Z,12.24
2023-04-10T07:48:38.179Z,12.38
2023-04-10T07:51:09.246Z,12.59
2023-04-10T07:53:37.688Z,12.81
2023-04-10T07:56:06.683Z,13.01
2023-04-10T07:58:34.760Z,13.13
2023-04-10T08:01:04.309Z,13.33
2023-04-10T08:03:38.541Z,13.48
2023-04-10T08:06:09.135Z,13.69
2023-04-10T08:08:38.258Z,13.94
2023-04-10T08:11:09.397Z,14.08
2023-04-10T08:13:37.447Z,14.11
2023-04-10T08:16:07.929Z,14.28
2023-04-10T08:18:36.025Z,14.47
2023-04-10T08:21:04.174Z,14.59
2023-04-10T08:23:32.292Z,14.63
2023-04-10T08:26:00.484Z,14.80
2023-04-10T08:28:28.545Z,14.94
2023-04-10T08:30:56.647Z,15.08
2023-04-10T08:33:26.122Z,15.23
2023-04-10T08:35:54.212Z,15.36
2023-04-10T08:38:24.936Z,15.49
2023-04-10T08:40:53.073Z,15.53
2023-04-10T08:43:21.197Z,15.57
2023-04-10T08:45:49.883Z,15.56
2023-04-10T08:48:20.484Z,15.67
2023-04-10T08:50:50.657Z,15.95
2023-04-10T08:53:21.237Z,16.18
2023-04-10T08:55:49.362Z,16.34
2023-04-10T08:58:17.446Z,16.44
2023-04-10T09:00:45.631Z,16.53
2023-04-10T09:03:15.061Z,16.66
2023-04-10T09:05:43.391Z,16.82
2023-04-10T09:08:13.679Z,16.88
2023-04-10T09:10:41.753Z,16.95
2023-04-10T09:13:09.845Z,16.94
2023-04-10T09:16:02.129Z,16.95
2023-04-10T09:18:42.599Z,17.09
2023-04-10T09:21:11.842Z,17.27
2023-04-10T09:23:42.508Z,17.48
2023-04-10T09:26:29.650Z,17.55
2023-04-10T09:29:02.535Z,17.54
2023-04-10T09:31:32.666Z,17.69
2023-04-10T09:34:12.164Z,17.88
2023-04-10T09:36:41.359Z,18.11
2023-04-10T09:39:12.252Z,18.33
2023-04-10T09:41:51.221Z,18.45
2023-04-10T09:44:21.133Z,18.47
2023-04-10T09:46:50.029Z,18.57
2023-04-10T09:49:18.287Z,18.61
2023-04-10T09:51:47.443Z,18.49
2023-04-10T09:54:16.903Z,18.36
2023-04-10T09:56:46.664Z,18.46
2023-04-10T09:59:15.042Z,18.48
2023-04-10T10:01:43.632Z,18.28
2023-04-10T10:04:12.684Z,18.22
2023-04-10T10:06:41.035Z,18.18
2023-04-10T10:09:09.328Z,18.12
2023-04-10T10:11:38.856Z,18.24
2023-04-10T10:14:10.514Z,18.46
2023-04-10T10:16:44.695Z,18.65
2023-04-10T10:19:17.426Z,18.78
2023-04-10T10:21:45.873Z,18.95
2023-04-10T10:24:14.706Z,19.08
2023-04-10T10:26:44.559Z,19.15
2023-04-10T10:29:14.165Z,19.23
2023-04-10T10:31:42.732Z,19.44
2023-04-10T10:34:11.064Z,19.62
2023-04-10T10:36:40.884Z,19.73
2023-04-10T10:39:24.518Z,19.67
2023-04-10T10:42:01.699Z,19.68
2023-04-10T10:44:38.106Z,19.70
2023-04-10T10:47:15.728Z,19.74
2023-04-10T10:49:54.722Z,19.60
2023-04-10T10:52:45.685Z,19.46
2023-04-10T10:55:38.125Z,19.40
2023-04-10T10:58:09.089Z,19.62
2023-04-10T11:01:10.104Z,19.82
2023-04-10T11:03:39.339Z,19.89
2023-04-10T11:06:09.397Z,19.85
2023-04-10T11:08:46.083Z,19.77
2023-04-10T11:11:21.852Z,19.69
2023-04-10T11:14:20.125Z,19.66
2023-04-10T11:16:48.818Z,19.79
2023-04-10T11:19:22.648Z,19.92
2023-04-10T11:22:06.021Z,19.96
2023-04-10T11:24:59.266Z,19.95
2023-04-10T11:27:40.712Z,19.81
2023-04-10T11:30:28.867Z,19.86
2023-04-10T11:32:57.180Z,19.95
2023-04-10T11:35:25.349Z,20.01
2023-04-10T11:37:53.444Z,19.95
2023-04-10T11:40:21.558Z,19.94
2023-04-10T11:42:50.331Z,19.97
2023-04-10T11:45:29.706Z,20.08
2023-04-10T11:47:57.852Z,20.31
2023-04-10T11:50:29.658Z,20.40
2023-04-10T11:52:57.745Z,20.38
2023-04-10T11:55:38.326Z,20.31
2023-04-10T11:58:06.687Z,20.16
2023-04-10T12:00:36.144Z,20.20
2023-04-10T12:03:04.415Z,20.21
2023-04-10T12:05:46.844Z,20.08
2023-04-10T12:08:14.898Z,20.07
2023-04-10T12:10:49.153Z,20.11
2023-04-10T12:13:26.021Z,20.09
2023-04-10T12:15:55.897Z,20.01
2023-04-10T12:18:25.421Z,19.86
2023-04-10T12:20:56.405Z,19.65
2023-04-10T12:23:24.874Z,19.53
2023-04-10T12:25:53.601Z,19.42
2023-04-10T12:28:22.657Z,19.46
2023-04-10T12:30:52.873Z,19.55
2023-04-10T12:33:25.904Z,19.60
2023-04-10T12:35:54.354Z,19.44
2023-04-10T12:38:41.954Z,19.42
2023-04-10T12:41:11.286Z,19.51
2023-04-10T12:43:40.681Z,19.51
2023-04-10T12:46:10.102Z,19.50
2023-04-10T12:48:39.566Z,19.49
2023-04-10T12:51:08.166Z,19.51
2023-04-10T12:53:44.485Z,19.51
2023-04-10T12:56:13.471Z,19.52
2023-04-10T12:58:42.649Z,19.61
2023-04-10T13:01:11.230Z,19.63
2023-04-10T13:03:40.788Z,19.52
2023-04-10T13:06:09.362Z,19.37
2023-04-10T13:08:37.432Z,19.32
2023-04-10T13:11:06.706Z,19.29
2023-04-10T13:13:34.813Z,19.23
2023-04-10T13:16:02.882Z,19.25
2023-04-10T13:18:31.095Z,19.29
2023-04-10T13:21:00.576Z,19.32
2023-04-10T13:23:28.704Z,19.26
2023-04-10T13:25:59.035Z,19.17
2023-04-10T13:28:27.145Z,19.08
2023-04-10T13:30:55.206Z,19.10
2023-04-10T13:33:24.982Z,19.23
2023-04-10T13:35:53.216Z,19.19
2023-04-10T13:38:22.794Z,19.09
2023-04-10T13:40:50.861Z,19.10
2023-04-10T13:43:18.958Z,19.05
2023-04-10T13:45:47.071Z,19.06
2023-04-10T13:48:17.605Z,19.04
2023-04-10T13:50:46.988Z,18.95
2023-04-10T13:53:15.216Z,18.88
2023-04-10T13:55:47.839Z,18.89
2023-04-10T13:58:18.920Z,18.87
2023-04-10T14:00:47.103Z,18.76
2023-04-10T14:03:15.358Z,18.74
2023-04-10T14:05:43.504Z,18.74
2023-04-10T14:08:14.753Z,18.68
2023-04-10T14:10:44.214Z,18.60
2023-04-10T14:13:12.382Z,18.61
2023-04-10T14:15:40.551Z,18.60
2023-04-10T14:18:08.846Z,18.59
2023-04-10T14:20:37.001Z,18.63
2023-04-10T14:23:05.126Z,18.60
2023-04-10T14:25:33.191Z,18.54
2023-04-10T14:28:02.657Z,18.50
2023-04-10T14:30:32.620Z,18.49
2023-04-10T14:33:00.938Z,18.44
2023-04-10T14:35:29.115Z,18.46
2023-04-10T14:37:57.272Z,18.56
2023-04-10T14:40:26.447Z,18.64
2023-04-10T14:42:54.564Z,18.68
2023-04-10T14:45:24.090Z,18.77
2023-04-10T14:47:52.408Z,19.02
2023-04-10T14:50:20.580Z,19.18
2023-04-10T14:52:49.569Z,19.26
2023-04-10T14:55:17.900Z,19.28
2023-04-10T14:57:45.982Z,19.30
2023-04-10T15:00:14.605Z,19.29
2023-04-10T15:02:45.201Z,19.20
2023-04-10T15:05:13.461Z,19.04
2023-04-10T15:07:41.546Z,18.85
2023-04-10T15:10:10.586Z,18.65
2023-04-10T15:12:38.825Z,18.49
2023-04-10T15:15:08.306Z,18.33
2023-04-10T15:17:36.455Z,18.26
2023-04-10T15:20:06.797Z,18.23
2023-04-10T15:22:35.677Z,18.18
2023-04-10T15:25:03.827Z,18.16
2023-04-10T15:27:31.938Z,18.15
2023-04-10T15:30:00.016Z,18.06
2023-04-10T15:32:28.193Z,18.02
2023-04-10T15:34:56.273Z,18.01
2023-04-10T15:37:25.890Z,18.04
2023-04-10T15:39:53.992Z,18.11
2023-04-10T15:42:22.100Z,18.08
2023-04-10T15:44:50.209Z,18.00
2023-04-10T15:47:18.340Z,17.99
2023-04-10T15:49:46.461Z,17.99
2023-04-10T15:52:14.560Z,18.04
2023-04-10T15:54:44.642Z,18.01
2023-04-10T15:57:12.753Z,18.07
2023-04-10T15:59:40.965Z,18.11
2023-04-10T16:02:09.191Z,18.15
2023-04-10T16:04:37.451Z,18.22
2023-04-10T16:07:06.070Z,18.26
2023-04-10T16:09:34.141Z,18.25
2023-04-10T16:12:03.557Z,18.22
2023-04-10T16:14:31.699Z,18.15
2023-04-10T16:16:59.782Z,18.03
2023-04-10T16:19:31.049Z,17.96
2023-04-10T16:21:59.119Z,17.85
2023-04-10T16:24:27.283Z,17.73
2023-04-10T16:26:58.339Z,17.59
2023-04-10T16:29:27.790Z,17.51
2023-04-10T16:31:55.908Z,17.45
2023-04-10T16:34:24.010Z,17.36
2023-04-10T16:36:52.067Z,17.33
2023-04-10T16:39:20.144Z,17.29
2023-04-10T16:41:48.182Z,17.24
2023-04-10T16:44:16.277Z,17.18
2023-04-10T16:46:45.776Z,17.11
2023-04-10T16:49:13.987Z,17.05
2023-04-10T16:51:42.252Z,17.01
2023-04-10T16:54:10.406Z,16.95
2023-04-10T16:56:38.481Z,16.93
2023-04-10T16:59:06.562Z,16.86
2023-04-10T17:01:39.636Z,16.81
2023-04-10T17:04:09.560Z,16.73
2023-04-10T17:06:37.743Z,16.68
2023-04-10T17:09:06.075Z,16.62
2023-04-10T17:11:34.153Z,16.58
2023-04-10T17:14:03.172Z,16.47
2023-04-10T17:16:31.301Z,16.41
2023-04-10T17:18:59.428Z,16.37
2023-04-10T17:21:30.727Z,16.30
2023-04-10T17:23:58.820Z,16.26
2023-04-10T17:26:26.948Z,16.20
2023-04-10T17:28:55.230Z,16.19
2023-04-10T17:31:23.979Z,16.15
2023-04-10T17:33:52.075Z,16.10
2023-04-10T17:36:20.784Z,16.07
2023-04-10T17:38:53.825Z,16.06
2023-04-10T17:41:22.397Z,16.02
2023-04-10T17:43:50.992Z,16.00
2023-04-10T17:46:19.148Z,15.95
2023-04-10T17:48:47.270Z,15.91
2023-04-10T17:51:15.413Z,15.87
2023-04-10T17:53:43.467Z,15.87
2023-04-10T17:56:20.810Z,15.81
2023-04-10T17:58:49.189Z,15.78
2023-04-10T18:01:24.176Z,15.78
2023-04-10T18:03:52.418Z,15.73
2023-04-10T18:06:20.720Z,15.73
2023-04-10T18:08:48.808Z,15.68
2023-04-10T18:11:16.901Z,15.62
2023-04-10T18:13:48.192Z,15.63
2023-04-10T18:16:17.429Z,15.62
2023-04-10T18:18:45.606Z,15.59
2023-04-10T18:21:14.334Z,15.58
2023-04-10T18:23:44.436Z,15.58
2023-04-10T18:26:12.813Z,15.58
2023-04-10T18:28:42.037Z,15.57
2023-04-10T18:31:14.681Z,15.55
2023-04-10T18:33:43.430Z,15.54
2023-04-10T18:36:13.945Z,15.53
2023-04-10T18:38:42.840Z,15.50
2023-04-10T18:41:11.324Z,15.48
2023-04-10T18:43:39.561Z,15.47
2023-04-10T18:46:08.138Z,15.44
2023-04-10T18:48:42.138Z,15.42
2023-04-10T18:51:10.878Z,15.43
2023-04-10T18:53:39.869Z,15.40
2023-04-10T18:56:08.430Z,15.35
2023-04-10T18:58:36.495Z,15.31
2023-04-10T19:01:04.652Z,15.27
2023-04-10T19:03:32.948Z,15.27
2023-04-10T19:06:02.521Z,15.26
2023-04-10T19:08:30.634Z,15.22
2023-04-10T19:10:58.972Z,15.18
2023-04-10T19:13:27.028Z,15.17
2023-04-10T19:15:55.125Z,15.15
2023-04-10T19:18:23.224Z,15.09
2023-04-10T19:20:53.446Z,15.07
2023-04-10T19:23:23.178Z,15.03
2023-04-10T19:25:53.332Z,14.98
2023-04-10T19:28:22.857Z,14.96
2023-04-10T19:30:50.954Z,14.96
2023-04-10T19:33:20.427Z,14.96
2023-04-10T19:35:48.536Z,14.93
2023-04-10T19:38:16.675Z,14.89
2023-04-10T19:40:47.155Z,14.87
2023-04-10T19:43:15.267Z,14.85
2023-04-10T19:45:43.375Z,14.84
2023-04-10T19:48:12.092Z,14.84
2023-04-10T19:50:40.157Z,14.85
2023-04-10T19:53:11.093Z,14.82
2023-04-10T19:55:40.420Z,14.83
2023-04-10T19:58:17.012Z,14.83
2023-04-10T20:00:55.488Z,14.81
2023-04-10T20:03:27.236Z,14.77
2023-04-10T20:05:55.572Z,14.70
2023-04-10T20:08:23.740Z,14.66
2023-04-10T20:10:51.827Z,14.61
2023-04-10T20:13:22.009Z,14.56
2023-04-10T20:15:50.707Z,14.51
2023-04-10T20:18:18.922Z,14.47
2023-04-10T20:20:47.036Z,14.41
2023-04-10T20:23:15.115Z,14.34
2023-04-10T20:25:43.312Z,14.29
2023-04-10T20:28:11.402Z,14.23
2023-04-10T20:30:40.888Z,14.16
2023-04-10T20:33:08.966Z,14.08
2023-04-10T20:35:37.054Z,14.00
2023-04-10T20:38:05.164Z,13.93
2023-04-10T20:40:33.243Z,13.86
2023-04-10T20:43:01.323Z,13.77
2023-04-10T20:45:29.413Z,13.71
2023-04-10T20:47:59.015Z,13.67
2023-04-10T20:50:27.249Z,13.61
2023-04-10T20:52:55.336Z,13.55
2023-04-10T20:55:23.409Z,13.50
2023-04-10T20:57:51.480Z,13.47
2023-04-10T21:00:19.985Z,13.45
2023-04-10T21:02:48.371Z,13.42
2023-04-10T21:05:18.126Z,13.39
2023-04-10T21:07:46.393Z,13.36
2023-04-10T21:10:14.492Z,13.40
2023-04-10T21:12:42.590Z,13.45
2023-04-10T21:15:11.175Z,13.46
2023-04-10T21:17:39.296Z,13.47
2023-04-10T21:20:08.353Z,13.48
2023-04-10T21:22:37.788Z,13.49
2023-04-10T21:25:06.670Z,13.48
2023-04-10T21:27:34.759Z,13.47
2023-04-10T21:30:02.879Z,13.47
2023-04-10T21:32:30.994Z,13.49
2023-04-10T21:34:59.211Z,13.50
2023-04-10T21:37:27.300Z,13.50
2023-04-10T21:39:56.727Z,13.51
2023-04-10T21:42:24.785Z,13.54
2023-04-10T21:44:53.970Z,13.58
2023-04-10T21:47:22.043Z,13.60
2023-04-10T21:49:50.074Z,13.63
2023-04-10T21:52:18.163Z,13.67
2023-04-10T21:54:46.220Z,13.68
2023-04-10T21:57:15.934Z,13.72
2023-04-10T21:59:44.051Z,13.74
2023-04-10T22:02:12.867Z,13.75
2023-04-10T22:04:47.984Z,13.76
2023-04-10T22:07:22.288Z,13.77
2023-04-10T22:09:50.398Z,13.74
2023-04-10T22:12:19.951Z,13.70
2023-04-10T22:14:49.184Z,13.67
2023-04-10T22:17:17.251Z,13.61
2023-04-10T22:19:45.318Z,13.56
2023-04-10T22:22:13.380Z,13.51
2023-04-10T22:24:41.442Z,13.44
2023-04-10T22:27:09.541Z,13.35
2023-04-10T22:29:39.673Z,13.28
2023-04-10T22:32:07.881Z,13.19
2023-04-10T22:34:36.097Z,13.10
2023-04-10T22:37:04.185Z,13.00
2023-04-10T22:39:32.238Z,12.90
2023-04-10T22:42:00.331Z,12.78
2023-04-10T22:44:28.357Z,12.64
2023-04-10T22:46:57.807Z,12.53
2023-04-10T22:49:25.937Z,12.36
2023-04-10T22:51:54.017Z,12.21
2023-04-10T22:54:22.298Z,12.06
2023-04-10T22:56:50.797Z,11.93
2023-04-10T22:59:19.409Z,11.75
2023-04-10T23:01:47.543Z,11.64
2023-04-10T23:04:17.129Z,11.52
2023-04-10T23:06:45.243Z,11.39
2023-04-10T23:09:13.332Z,11.28
2023-04-10T23:11:41.409Z,11.19
2023-04-10T23:14:09.693Z,11.12
2023-04-10T23:16:37.764Z,11.05
2023-04-10T23:19:06.030Z,11.02
2023-04-10T23:21:35.485Z,10.97
2023-04-10T23:24:03.669Z,10.90
2023-04-10T23:26:31.919Z,10.85
2023-04-10T23:29:00.184Z,10.81
2023-04-10T23:31:28.365Z,10.74
2023-04-10T23:33:56.476Z,10.68
2023-04-10T23:36:24.541Z,10.65
2023-04-10T23:38:54.270Z,10.60
2023-04-10T23:41:22.536Z,10.56
2023-04-10T23:43:50.655Z,10.53
2023-04-10T23:46:18.772Z,10.50
2023-04-10T23:51:14.988Z,10.48
2023-04-10T23:53:43.094Z,10.46
2023-04-10T23:56:12.608Z,10.45
2023-04-10T23:58:40.736Z,10.44
